createdAt,value
2023-11-18T00:03:29.534Z,102153.44
2023-11-18T00:08:36.975Z,102077.66
2023-11-18T00:13:42.953Z,102154.75
2023-11-18T00:18:45.702Z,102043.00
2023-11-18T00:23:50.422Z,102124.25
2023-11-18T00:28:54.547Z,102076.53
2023-11-18T00:33:58.141Z,102101.72
2023-11-18T00:39:00.942Z,102141.94
2023-11-18T00:44:11.055Z,102147.22
2023-11-18T00:49:13.727Z,102129.00
2023-11-18T00:54:16.506Z,102078.59
2023-11-18T00:59:21.143Z,101876.13
2023-11-18T01:04:23.808Z,102095.78
2023-11-18T01:09:26.746Z,102137.63
2023-11-18T01:14:30.787Z,102136.91
2023-11-18T01:19:34.532Z,102142.81
2023-11-18T01:24:37.310Z,102150.69
2023-11-18T01:29:41.396Z,102151.13
2023-11-18T01:34:45.768Z,102140.34
2023-11-18T01:39:48.508Z,102161.25
2023-11-18T01:44:52.632Z,102165.31
2023-11-18T01:49:55.930Z,102158.22
2023-11-18T01:55:01.356Z,102171.25
2023-11-18T02:00:18.559Z,101716.19
2023-11-18T02:05:23.067Z,102164.06
2023-11-18T02:10:27.322Z,102157.88
2023-11-18T02:15:33.013Z,102120.88
2023-11-18T02:20:37.935Z,102142.81
2023-11-18T02:25:46.833Z,102134.78
2023-11-18T02:30:52.176Z,102133.50
2023-11-18T02:35:58.199Z,102138.84
2023-11-18T02:41:09.994Z,102135.81
2023-11-18T02:46:18.566Z,102139.47
2023-11-18T02:51:21.388Z,102095.38
2023-11-18T02:56:25.446Z,102148.44
2023-11-18T03:01:31.148Z,102137.00
2023-11-18T03:06:34.800Z,101980.75
2023-11-18T03:11:39.594Z,102136.53
2023-11-18T03:16:42.819Z,102124.03
2023-11-18T03:21:45.634Z,102105.91
2023-11-18T03:26:50.209Z,102096.84
2023-11-18T03:31:52.956Z,102101.66
2023-11-18T03:36:58.229Z,102091.94
2023-11-18T03:42:02.287Z,102102.72
2023-11-18T03:47:05.267Z,102123.19
2023-11-18T03:52:08.137Z,102008.06
2023-11-18T03:57:12.125Z,102100.38
2023-11-18T04:02:14.902Z,102120.31
2023-11-18T04:07:17.770Z,102082.34
2023-11-18T04:12:21.858Z,102117.66
2023-11-18T04:17:24.595Z,102041.06
2023-11-18T04:22:27.635Z,102099.06
2023-11-18T04:27:31.857Z,102091.03
2023-11-18T04:32:34.655Z,101900.16
2023-11-18T04:37:37.666Z,102029.81
2023-11-18T04:42:42.492Z,102052.56
2023-11-18T04:47:47.657Z,102052.88
2023-11-18T04:52:50.519Z,102049.22
2023-11-18T04:57:54.790Z,102040.84
2023-11-18T05:02:57.546Z,102036.78
2023-11-18T05:08:00.317Z,102024.56
2023-11-18T05:13:04.650Z,101980.41
2023-11-18T05:18:10.825Z,102003.88
2023-11-18T05:23:14.094Z,101783.66
2023-11-18T05:28:19.241Z,102004.28
2023-11-18T05:33:21.889Z,102017.22
2023-11-18T05:38:27.460Z,102011.31
2023-11-18T05:43:37.912Z,102012.16
2023-11-18T05:48:44.138Z,102012.19
2023-11-18T05:53:48.063Z,101949.22
2023-11-18T05:58:54.251Z,101935.38
2023-11-18T06:03:57.980Z,101971.84
2023-11-18T06:09:05.822Z,101983.19
2023-11-18T06:14:10.557Z,101972.38
2023-11-18T06:19:13.432Z,101709.13
2023-11-18T06:24:20.909Z,101965.19
2023-11-18T06:29:25.984Z,101980.88
2023-11-18T06:34:29.150Z,101966.09
2023-11-18T06:39:33.660Z,101732.16
2023-11-18T06:44:37.658Z,101949.50
2023-11-18T06:49:42.117Z,101954.00
2023-11-18T06:54:45.071Z,101942.88
2023-11-18T06:59:49.519Z,101965.06
2023-11-18T07:04:52.758Z,101948.50
2023-11-18T07:09:56.732Z,101910.78
2023-11-18T07:15:02.139Z,101978.84
2023-11-18T07:20:06.964Z,101983.41
2023-11-18T07:25:10.513Z,101878.81
2023-11-18T07:30:15.245Z,101989.06
2023-11-18T07:35:20.549Z,101968.53
2023-11-18T07:40:29.278Z,101899.63
2023-11-18T07:45:39.441Z,101817.28
2023-11-18T07:50:42.598Z,101951.28
2023-11-18T07:55:46.092Z,101870.56
2023-11-18T08:00:51.182Z,101908.03
2023-11-18T08:05:53.931Z,101931.38
2023-11-18T08:10:57.606Z,101970.91
2023-11-18T08:16:02.104Z,101974.91
2023-11-18T08:21:07.858Z,101936.81
2023-11-18T08:26:13.631Z,101893.13
2023-11-18T08:31:18.427Z,101971.22
2023-11-18T08:36:28.407Z,101951.75
2023-11-18T08:41:32.110Z,101955.06
2023-11-18T08:46:36.286Z,101955.81
2023-11-18T08:51:42.912Z,101795.63
2023-11-18T08:56:47.471Z,101888.41
2023-11-18T09:01:56.839Z,101936.00
2023-11-18T09:07:01.428Z,101871.09
2023-11-18T09:12:21.270Z,101904.56
2023-11-18T09:17:28.898Z,101892.88
2023-11-18T09:22:31.960Z,101830.41
2023-11-18T09:27:35.143Z,101860.50
2023-11-18T09:32:40.331Z,101883.16
2023-11-18T09:37:47.953Z,101835.88
2023-11-18T09:42:52.133Z,101888.16
2023-11-18T09:47:56.464Z,101806.69
2023-11-18T09:53:12.208Z,101809.16
2023-11-18T09:58:24.294Z,101874.72
2023-11-18T10:03:30.555Z,101868.59
2023-11-18T10:08:33.570Z,101855.69
2023-11-18T10:13:41.660Z,101755.00
2023-11-18T10:18:50.241Z,101697.72
2023-11-18T10:24:15.411Z,101759.06
2023-11-18T10:29:19.699Z,101777.66
2023-11-18T10:34:29.051Z,101802.56
2023-11-18T10:39:36.490Z,101795.78
2023-11-18T10:44:41.010Z,101783.97
2023-11-18T10:49:57.088Z,101772.84
2023-11-18T10:55:09.559Z,101746.84
2023-11-18T11:00:16.766Z,101707.28
2023-11-18T11:05:33.454Z,101655.13
2023-11-18T11:10:37.420Z,101602.44
2023-11-18T11:15:51.958Z,101538.06
2023-11-18T11:21:12.078Z,101757.78
2023-11-18T11:26:29.210Z,101688.59
2023-11-18T11:31:37.491Z,101742.66
2023-11-18T11:36:47.703Z,101727.78
2023-11-18T11:41:55.635Z,101739.31
2023-11-18T11:47:01.435Z,101734.34
2023-11-18T11:52:16.120Z,101702.16
2023-11-18T11:57:20.534Z,101668.00
2023-11-18T12:02:26.250Z,101513.69
2023-11-18T12:07:39.834Z,101623.94
2023-11-18T12:12:43.418Z,101670.44
2023-11-18T12:18:21.413Z,101655.66
2023-11-18T12:35:34.091Z,101347.06
2023-11-18T13:05:43.532Z,101511.75
2023-11-18T13:11:20.866Z,101492.56
2023-11-18T13:17:56.545Z,101450.91
2023-11-18T13:35:01.655Z,101410.09
2023-11-18T13:46:17.967Z,101356.84
2023-11-18T13:51:44.571Z,101379.06
2023-11-18T14:48:22.704Z,101251.59
2023-11-18T14:53:26.093Z,101203.25
2023-11-18T14:58:29.147Z,101135.25
2023-11-18T15:03:33.295Z,101209.78
2023-11-18T15:08:39.449Z,101175.78
2023-11-18T15:13:44.171Z,101151.53
2023-11-18T15:18:50.883Z,101147.13
2023-11-18T15:23:53.833Z,101147.00
2023-11-18T15:28:58.026Z,101138.38
2023-11-18T15:34:02.313Z,101118.75
2023-11-18T15:39:05.400Z,101100.28
2023-11-18T15:44:08.143Z,101085.56
2023-11-18T15:49:12.756Z,101082.94
2023-11-18T15:54:16.374Z,101089.56
2023-11-18T15:59:19.211Z,101066.50
2023-11-18T16:04:23.123Z,101064.25
2023-11-18T16:09:25.772Z,101058.97
2023-11-18T16:14:28.548Z,101055.41
2023-11-18T16:19:32.509Z,101034.22
2023-11-18T16:24:35.112Z,101043.75
2023-11-18T16:29:38.033Z,101036.50
2023-11-18T16:34:42.167Z,101027.69
2023-11-18T16:39:45.827Z,101010.31
2023-11-18T16:44:49.486Z,100997.47
2023-11-18T16:50:02.899Z,100995.75
2023-11-18T16:55:07.669Z,100990.31
2023-11-18T17:00:17.430Z,100981.63
2023-11-18T17:05:21.997Z,100948.91
2023-11-18T17:10:25.433Z,100985.38
2023-11-18T17:15:29.808Z,100997.84
2023-11-18T17:20:34.330Z,100968.94
2023-11-18T17:25:37.898Z,100952.78
2023-11-18T17:30:41.271Z,100950.78
2023-11-18T17:35:45.392Z,100935.97
2023-11-18T17:40:49.255Z,100931.53
2023-11-18T17:45:52.357Z,100921.34
2023-11-18T17:50:59.671Z,100939.56
2023-11-18T17:56:02.689Z,100912.53
2023-11-18T18:01:07.607Z,100934.28
2023-11-18T18:06:14.583Z,100933.69
2023-11-18T18:11:18.914Z,100922.00
2023-11-18T18:16:21.986Z,100936.19
2023-11-18T18:21:26.013Z,100933.88
2023-11-18T18:26:28.781Z,100954.19
2023-11-18T18:31:31.418Z,100929.28
2023-11-18T18:36:35.464Z,100914.63
2023-11-18T18:41:39.302Z,100930.28
2023-11-18T18:46:42.931Z,100920.94
2023-11-18T18:51:47.887Z,100906.25
2023-11-18T18:56:51.669Z,100908.81
2023-11-18T19:01:55.392Z,100925.34
2023-11-18T19:06:59.612Z,100925.50
2023-11-18T19:12:02.240Z,100898.63
2023-11-18T19:17:05.979Z,100894.63
2023-11-18T19:22:10.127Z,100906.22
2023-11-18T19:27:15.023Z,100894.53
2023-11-18T19:32:17.679Z,100890.69
2023-11-18T19:37:22.002Z,100859.09
2023-11-18T19:42:24.826Z,100872.38
2023-11-18T19:47:29.734Z,100857.34
2023-11-18T19:52:33.793Z,100862.00
2023-11-18T19:57:36.882Z,100758.63
2023-11-18T20:02:41.977Z,100845.16
2023-11-18T20:07:46.362Z,100827.44
2023-11-18T20:12:49.352Z,100831.38
2023-11-18T20:17:52.325Z,100814.03
2023-11-18T20:22:56.580Z,100817.84
2023-11-18T20:27:59.433Z,100745.84
2023-11-18T20:33:02.254Z,100804.91
2023-11-18T20:38:06.551Z,100807.88
2023-11-18T20:43:09.353Z,100800.56
2023-11-18T20:48:12.196Z,100795.78
2023-11-18T20:53:16.238Z,100775.97
2023-11-18T20:58:19.925Z,100793.75
2023-11-18T21:03:23.294Z,100789.31
2023-11-18T21:08:27.620Z,100770.03
2023-11-18T21:13:31.724Z,100797.47
2023-11-18T21:18:34.483Z,100786.44
2023-11-18T21:23:38.542Z,100771.16
2023-11-18T21:28:41.205Z,100799.03
2023-11-18T21:33:44.037Z,100757.19
2023-11-18T21:43:54.590Z,100760.34
2023-11-18T21:48:57.275Z,100753.09
2023-11-18T21:54:02.182Z,100749.97
2023-11-18T21:59:05.332Z,100750.59
2023-11-18T22:04:12.063Z,100760.59
2023-11-18T22:09:17.543Z,100750.66
2023-11-18T22:14:20.283Z,100750.22
2023-11-18T22:19:22.993Z,100739.09
2023-11-18T22:24:27.386Z,100734.31
2023-11-18T22:29:30.347Z,100688.44
2023-11-18T22:34:36.228Z,100732.13
2023-11-18T22:39:40.320Z,100617.03
2023-11-18T22:44:46.314Z,100712.44
2023-11-18T22:49:49.166Z,100664.72
2023-11-18T22:54:53.175Z,100695.84
2023-11-18T22:59:56.889Z,100679.06
2023-11-18T23:05:02.497Z,100664.03
2023-11-18T23:10:08.309Z,100686.72
2023-11-18T23:15:11.455Z,100679.66
2023-11-18T23:20:17.228Z,100659.00
2023-11-18T23:25:23.586Z,100640.59
2023-11-18T23:30:26.600Z,100615.69
2023-11-18T23:35:30.727Z,100582.94
2023-11-18T23:40:35.336Z,100617.84
2023-11-18T23:45:38.552Z,100630.81
2023-11-18T23:50:41.205Z,100626.72
2023-11-18T23:55:45.829Z,100637.34
